sensor_id;sensor_type;location;lat;lon;timestamp;temperature;humidity
17891;DHT22;9071;48.220;14.480;2023-08-06T00:01:02;15.80;99.90
17891;DHT22;9071;48.220;14.480;2023-08-06T00:06:05;15.80;99.90
17891;DHT22;9071;48.220;14.480;2023-08-06T00:11:08;15.80;99.90
17891;DHT22;9071;48.220;14.480;2023-08-06T00:16:11;15.80;99.90
17891;DHT22;9071;48.220;14.480;2023-08-06T00:21:13;15.80;99.90
17891;DHT22;9071;48.220;14.480;2023-08-06T00:26:16;15.80;99.90
17891;DHT22;9071;48.220;14.480;2023-08-06T00:31:18;15.80;99.90
17891;DHT22;9071;48.220;14.480;2023-08-06T00:36:20;15.80;99.90
17891;DHT22;9071;48.220;14.480;2023-08-06T00:41:24;15.80;99.90
17891;DHT22;9071;48.220;14.480;2023-08-06T00:46:26;15.80;99.90
17891;DHT22;9071;48.220;14.480;2023-08-06T00:51:28;15.80;99.90
17891;DHT22;9071;48.220;14.480;2023-08-06T00:56:32;15.80;99.90
17891;DHT22;9071;48.220;14.480;2023-08-06T01:01:36;15.80;99.90
17891;DHT22;9071;48.220;14.480;2023-08-06T01:06:43;15.80;99.90
17891;DHT22;9071;48.220;14.480;2023-08-06T01:11:57;15.80;99.90
17891;DHT22;9071;48.220;14.480;2023-08-06T01:17:01;15.80;99.90
17891;DHT22;9071;48.220;14.480;2023-08-06T01:22:06;15.80;99.90
17891;DHT22;9071;48.220;14.480;2023-08-06T01:27:13;15.80;99.90
17891;DHT22;9071;48.220;14.480;2023-08-06T01:32:16;15.80;99.90
17891;DHT22;9071;48.220;14.480;2023-08-06T01:37:21;15.70;99.90
17891;DHT22;9071;48.220;14.480;2023-08-06T01:42:23;15.70;99.90
17891;DHT22;9071;48.220;14.480;2023-08-06T01:47:25;15.70;99.90
17891;DHT22;9071;48.220;14.480;2023-08-06T01:52:28;15.70;99.90
17891;DHT22;9071;48.220;14.480;2023-08-06T01:57:30;15.70;99.90
17891;DHT22;9071;48.220;14.480;2023-08-06T02:02:32;15.70;99.90
17891;DHT22;9071;48.220;14.480;2023-08-06T02:07:36;15.70;99.90
17891;DHT22;9071;48.220;14.480;2023-08-06T02:12:38;15.70;99.90
17891;DHT22;9071;48.220;14.480;2023-08-06T02:17:40;15.70;99.90
17891;DHT22;9071;48.220;14.480;2023-08-06T02:22:43;15.70;99.90
17891;DHT22;9071;48.220;14.480;2023-08-06T02:27:45;15.60;99.90
17891;DHT22;9071;48.220;14.480;2023-08-06T02:32:47;15.60;99.90
17891;DHT22;9071;48.220;14.480;2023-08-06T02:37:51;15.70;99.90
17891;DHT22;9071;48.220;14.480;2023-08-06T02:42:53;15.60;99.90
17891;DHT22;9071;48.220;14.480;2023-08-06T02:47:55;15.60;99.90
17891;DHT22;9071;48.220;14.480;2023-08-06T02:52:58;15.60;99.90
17891;DHT22;9071;48.220;14.480;2023-08-06T02:58:01;15.60;99.90
17891;DHT22;9071;48.220;14.480;2023-08-06T03:03:03;15.60;99.90
17891;DHT22;9071;48.220;14.480;2023-08-06T03:08:06;15.60;99.90
17891;DHT22;9071;48.220;14.480;2023-08-06T03:13:09;15.70;99.90
17891;DHT22;9071;48.220;14.480;2023-08-06T03:18:11;15.60;99.90
17891;DHT22;9071;48.220;14.480;2023-08-06T03:23:14;15.60;99.90
17891;DHT22;9071;48.220;14.480;2023-08-06T03:28:16;15.50;99.90
17891;DHT22;9071;48.220;14.480;2023-08-06T03:33:18;15.50;99.90
17891;DHT22;9071;48.220;14.480;2023-08-06T03:38:21;15.50;99.90
17891;DHT22;9071;48.220;14.480;2023-08-06T03:43:24;15.50;99.90
17891;DHT22;9071;48.220;14.480;2023-08-06T03:48:26;15.50;99.90
17891;DHT22;9071;48.220;14.480;2023-08-06T03:53:29;15.40;99.90
17891;DHT22;9071;48.220;14.480;2023-08-06T03:58:31;15.40;99.90
17891;DHT22;9071;48.220;14.480;2023-08-06T04:03:34;15.40;99.90
17891;DHT22;9071;48.220;14.480;2023-08-06T04:08:37;15.40;99.90
17891;DHT22;9071;48.220;14.480;2023-08-06T04:13:42;15.40;99.90
17891;DHT22;9071;48.220;14.480;2023-08-06T04:18:44;15.50;99.90
17891;DHT22;9071;48.220;14.480;2023-08-06T04:23:48;15.50;99.90
17891;DHT22;9071;48.220;14.480;2023-08-06T04:28:50;15.50;99.90
17891;DHT22;9071;48.220;14.480;2023-08-06T04:33:52;15.60;99.90
17891;DHT22;9071;48.220;14.480;2023-08-06T04:38:55;15.60;99.90
17891;DHT22;9071;48.220;14.480;2023-08-06T04:43:57;15.60;99.90
17891;DHT22;9071;48.220;14.480;2023-08-06T04:48:59;15.40;99.90
17891;DHT22;9071;48.220;14.480;2023-08-06T04:54:03;15.40;99.90
17891;DHT22;9071;48.220;14.480;2023-08-06T04:59:05;15.20;99.90
17891;DHT22;9071;48.220;14.480;2023-08-06T05:04:07;15.30;99.90
17891;DHT22;9071;48.220;14.480;2023-08-06T05:09:11;15.20;99.90
17891;DHT22;9071;48.220;14.480;2023-08-06T05:14:13;15.20;99.90
17891;DHT22;9071;48.220;14.480;2023-08-06T05:19:15;15.20;99.90
17891;DHT22;9071;48.220;14.480;2023-08-06T05:24:18;15.20;99.90
17891;DHT22;9071;48.220;14.480;2023-08-06T05:29:20;15.20;99.90
17891;DHT22;9071;48.220;14.480;2023-08-06T05:34:22;15.20;99.90
17891;DHT22;9071;48.220;14.480;2023-08-06T05:39:25;15.10;99.90
17891;DHT22;9071;48.220;14.480;2023-08-06T05:44:28;15.10;99.90
17891;DHT22;9071;48.220;14.480;2023-08-06T05:49:29;15.10;99.90
17891;DHT22;9071;48.220;14.480;2023-08-06T05:54:33;15.10;99.90
17891;DHT22;9071;48.220;14.480;2023-08-06T05:59:35;15.10;99.90
17891;DHT22;9071;48.220;14.480;2023-08-06T06:04:37;15.10;99.90
17891;DHT22;9071;48.220;14.480;2023-08-06T06:09:40;15.20;99.90
17891;DHT22;9071;48.220;14.480;2023-08-06T06:14:43;15.30;99.90
17891;DHT22;9071;48.220;14.480;2023-08-06T06:19:45;15.20;99.90
17891;DHT22;9071;48.220;14.480;2023-08-06T06:24:48;15.30;99.90
17891;DHT22;9071;48.220;14.480;2023-08-06T06:29:50;15.50;99.90
17891;DHT22;9071;48.220;14.480;2023-08-06T06:34:55;15.60;99.90
17891;DHT22;9071;48.220;14.480;2023-08-06T06:39:58;15.80;99.90
17891;DHT22;9071;48.220;14.480;2023-08-06T06:45:00;16.00;99.90
17891;DHT22;9071;48.220;14.480;2023-08-06T06:50:03;16.20;99.90
17891;DHT22;9071;48.220;14.480;2023-08-06T06:55:07;16.30;99.90
17891;DHT22;9071;48.220;14.480;2023-08-06T07:00:10;16.50;99.90
17891;DHT22;9071;48.220;14.480;2023-08-06T07:05:13;16.70;99.90
17891;DHT22;9071;48.220;14.480;2023-08-06T07:10:16;16.80;99.90
17891;DHT22;9071;48.220;14.480;2023-08-06T07:15:18;16.90;99.90
17891;DHT22;9071;48.220;14.480;2023-08-06T07:20:20;17.00;99.90
17891;DHT22;9071;48.220;14.480;2023-08-06T07:25:24;17.20;99.90
17891;DHT22;9071;48.220;14.480;2023-08-06T07:30:26;17.10;99.90
17891;DHT22;9071;48.220;14.480;2023-08-06T07:35:29;17.00;99.90
17891;DHT22;9071;48.220;14.480;2023-08-06T07:40:32;16.90;99.90
17891;DHT22;9071;48.220;14.480;2023-08-06T07:45:34;17.10;99.90
17891;DHT22;9071;48.220;14.480;2023-08-06T07:50:36;17.20;99.90
17891;DHT22;9071;48.220;14.480;2023-08-06T07:55:40;17.10;99.90
17891;DHT22;9071;48.220;14.480;2023-08-06T08:00:42;17.00;99.90
17891;DHT22;9071;48.220;14.480;2023-08-06T08:05:47;16.90;99.90
17891;DHT22;9071;48.220;14.480;2023-08-06T08:10:50;16.70;99.90
17891;DHT22;9071;48.220;14.480;2023-08-06T08:15:57;16.50;99.90
17891;DHT22;9071;48.220;14.480;2023-08-06T08:20:59;16.50;99.90
17891;DHT22;9071;48.220;14.480;2023-08-06T08:26:02;16.50;99.90
17891;DHT22;9071;48.220;14.480;2023-08-06T08:31:08;16.50;99.90
17891;DHT22;9071;48.220;14.480;2023-08-06T08:36:10;16.70;99.90
17891;DHT22;9071;48.220;14.480;2023-08-06T08:41:15;16.90;99.90
17891;DHT22;9071;48.220;14.480;2023-08-06T08:46:19;16.90;99.90
17891;DHT22;9071;48.220;14.480;2023-08-06T08:51:21;17.00;99.90
17891;DHT22;9071;48.220;14.480;2023-08-06T08:56:25;17.20;99.90
17891;DHT22;9071;48.220;14.480;2023-08-06T09:01:27;17.30;99.90
17891;DHT22;9071;48.220;14.480;2023-08-06T09:06:33;17.30;99.90
17891;DHT22;9071;48.220;14.480;2023-08-06T09:11:43;17.30;99.90
17891;DHT22;9071;48.220;14.480;2023-08-06T09:16:45;17.20;99.90
17891;DHT22;9071;48.220;14.480;2023-08-06T09:21:51;17.10;99.90
17891;DHT22;9071;48.220;14.480;2023-08-06T09:26:54;17.20;99.90
17891;DHT22;9071;48.220;14.480;2023-08-06T09:31:57;17.40;99.90
17891;DHT22;9071;48.220;14.480;2023-08-06T09:36:59;17.60;99.90
17891;DHT22;9071;48.220;14.480;2023-08-06T09:42:02;17.80;99.90
17891;DHT22;9071;48.220;14.480;2023-08-06T09:47:05;18.00;99.90
17891;DHT22;9071;48.220;14.480;2023-08-06T09:52:10;18.50;99.90
17891;DHT22;9071;48.220;14.480;2023-08-06T09:57:15;18.70;99.90
17891;DHT22;9071;48.220;14.480;2023-08-06T10:02:18;18.90;99.90
17891;DHT22;9071;48.220;14.480;2023-08-06T10:07:22;19.40;99.90
17891;DHT22;9071;48.220;14.480;2023-08-06T10:12:29;19.40;99.90
17891;DHT22;9071;48.220;14.480;2023-08-06T10:17:33;19.20;99.90
17891;DHT22;9071;48.220;14.480;2023-08-06T10:22:36;18.90;99.90
17891;DHT22;9071;48.220;14.480;2023-08-06T10:27:53;18.90;99.90
17891;DHT22;9071;48.220;14.480;2023-08-06T10:32:56;19.30;99.90
17891;DHT22;9071;48.220;14.480;2023-08-06T10:38:04;20.00;99.90
17891;DHT22;9071;48.220;14.480;2023-08-06T10:43:08;20.50;99.90
17891;DHT22;9071;48.220;14.480;2023-08-06T10:48:30;20.50;99.90
17891;DHT22;9071;48.220;14.480;2023-08-06T10:53:32;20.70;99.90
17891;DHT22;9071;48.220;14.480;2023-08-06T10:58:35;20.20;99.90
17891;DHT22;9071;48.220;14.480;2023-08-06T11:03:38;20.00;99.90
17891;DHT22;9071;48.220;14.480;2023-08-06T11:08:47;19.70;99.90
17891;DHT22;9071;48.220;14.480;2023-08-06T11:13:51;19.40;99.90
17891;DHT22;9071;48.220;14.480;2023-08-06T11:18:54;19.20;99.90
17891;DHT22;9071;48.220;14.480;2023-08-06T11:23:58;19.20;99.90
17891;DHT22;9071;48.220;14.480;2023-08-06T11:29:02;19.60;99.90
17891;DHT22;9071;48.220;14.480;2023-08-06T11:34:04;20.20;99.90
17891;DHT22;9071;48.220;14.480;2023-08-06T11:39:07;21.20;99.90
17891;DHT22;9071;48.220;14.480;2023-08-06T11:44:12;22.30;99.90
17891;DHT22;9071;48.220;14.480;2023-08-06T11:49:14;22.60;99.90
17891;DHT22;9071;48.220;14.480;2023-08-06T11:54:16;22.30;99.90
17891;DHT22;9071;48.220;14.480;2023-08-06T11:59:37;21.70;99.90
17891;DHT22;9071;48.220;14.480;2023-08-06T12:05:01;21.50;99.90
17891;DHT22;9071;48.220;14.480;2023-08-06T12:10:05;21.10;99.90
17891;DHT22;9071;48.220;14.480;2023-08-06T12:15:10;21.00;99.90
17891;DHT22;9071;48.220;14.480;2023-08-06T12:20:13;20.90;99.90
17891;DHT22;9071;48.220;14.480;2023-08-06T12:25:15;20.20;99.90
17891;DHT22;9071;48.220;14.480;2023-08-06T12:30:19;19.90;99.90
17891;DHT22;9071;48.220;14.480;2023-08-06T12:35:21;19.80;99.90
17891;DHT22;9071;48.220;14.480;2023-08-06T12:40:24;19.80;99.90
17891;DHT22;9071;48.220;14.480;2023-08-06T12:45:27;19.50;99.90
17891;DHT22;9071;48.220;14.480;2023-08-06T12:50:29;18.60;99.90
17891;DHT22;9071;48.220;14.480;2023-08-06T12:55:33;17.50;99.90
17891;DHT22;9071;48.220;14.480;2023-08-06T13:00:36;16.80;99.90
17891;DHT22;9071;48.220;14.480;2023-08-06T13:05:38;16.50;99.90
17891;DHT22;9071;48.220;14.480;2023-08-06T13:10:40;16.60;99.90
17891;DHT22;9071;48.220;14.480;2023-08-06T13:15:44;16.50;99.90
17891;DHT22;9071;48.220;14.480;2023-08-06T13:20:46;16.20;99.90
17891;DHT22;9071;48.220;14.480;2023-08-06T13:25:50;16.00;99.90
17891;DHT22;9071;48.220;14.480;2023-08-06T13:30:53;15.90;99.90
17891;DHT22;9071;48.220;14.480;2023-08-06T13:35:55;16.00;99.90
17891;DHT22;9071;48.220;14.480;2023-08-06T13:40:57;16.30;99.90
17891;DHT22;9071;48.220;14.480;2023-08-06T13:46:01;16.90;99.90
17891;DHT22;9071;48.220;14.480;2023-08-06T13:51:03;17.70;99.90
17891;DHT22;9071;48.220;14.480;2023-08-06T13:56:05;18.50;99.90
17891;DHT22;9071;48.220;14.480;2023-08-06T14:01:10;18.70;99.90
17891;DHT22;9071;48.220;14.480;2023-08-06T14:06:13;19.00;99.90
17891;DHT22;9071;48.220;14.480;2023-08-06T14:11:16;19.00;99.90
17891;DHT22;9071;48.220;14.480;2023-08-06T14:16:19;18.20;99.90
17891;DHT22;9071;48.220;14.480;2023-08-06T14:21:21;17.50;99.90
17891;DHT22;9071;48.220;14.480;2023-08-06T14:26:23;17.20;99.90
17891;DHT22;9071;48.220;14.480;2023-08-06T14:31:27;17.30;99.90
17891;DHT22;9071;48.220;14.480;2023-08-06T14:36:29;18.00;99.90
17891;DHT22;9071;48.220;14.480;2023-08-06T14:41:31;18.30;99.90
17891;DHT22;9071;48.220;14.480;2023-08-06T14:46:34;18.00;99.90
17891;DHT22;9071;48.220;14.480;2023-08-06T14:51:36;17.90;99.90
17891;DHT22;9071;48.220;14.480;2023-08-06T14:56:39;17.40;99.90
17891;DHT22;9071;48.220;14.480;2023-08-06T15:01:43;17.50;99.90
17891;DHT22;9071;48.220;14.480;2023-08-06T15:06:45;17.90;99.90
17891;DHT22;9071;48.220;14.480;2023-08-06T15:11:47;18.00;99.90
17891;DHT22;9071;48.220;14.480;2023-08-06T15:16:50;18.10;99.90
17891;DHT22;9071;48.220;14.480;2023-08-06T15:21:53;18.40;99.90
17891;DHT22;9071;48.220;14.480;2023-08-06T15:26:55;18.60;99.90
17891;DHT22;9071;48.220;14.480;2023-08-06T15:31:59;18.70;99.90
17891;DHT22;9071;48.220;14.480;2023-08-06T15:37:01;18.60;99.90
17891;DHT22;9071;48.220;14.480;2023-08-06T15:42:04;18.50;99.90
17891;DHT22;9071;48.220;14.480;2023-08-06T15:47:08;18.40;99.90
17891;DHT22;9071;48.220;14.480;2023-08-06T15:52:10;18.00;99.90
17891;DHT22;9071;48.220;14.480;2023-08-06T15:57:12;18.00;99.90
17891;DHT22;9071;48.220;14.480;2023-08-06T16:02:17;18.00;99.90
17891;DHT22;9071;48.220;14.480;2023-08-06T16:07:20;18.00;99.90
17891;DHT22;9071;48.220;14.480;2023-08-06T16:12:24;17.80;99.90
17891;DHT22;9071;48.220;14.480;2023-08-06T16:17:27;17.40;99.90
17891;DHT22;9071;48.220;14.480;2023-08-06T16:22:29;17.40;99.90
17891;DHT22;9071;48.220;14.480;2023-08-06T16:27:31;17.60;99.90
17891;DHT22;9071;48.220;14.480;2023-08-06T16:32:35;17.70;99.90
17891;DHT22;9071;48.220;14.480;2023-08-06T16:37:37;17.80;99.90
17891;DHT22;9071;48.220;14.480;2023-08-06T16:42:40;17.80;99.90
17891;DHT22;9071;48.220;14.480;2023-08-06T16:47:44;17.60;99.90
17891;DHT22;9071;48.220;14.480;2023-08-06T16:52:46;17.50;99.90
17891;DHT22;9071;48.220;14.480;2023-08-06T16:57:48;17.40;99.90
17891;DHT22;9071;48.220;14.480;2023-08-06T17:02:51;17.20;99.90
17891;DHT22;9071;48.220;14.480;2023-08-06T17:07:53;17.10;99.90
17891;DHT22;9071;48.220;14.480;2023-08-06T17:12:55;16.90;99.90
17891;DHT22;9071;48.220;14.480;2023-08-06T17:17:59;16.60;99.90
17891;DHT22;9071;48.220;14.480;2023-08-06T17:23:01;16.40;99.90
17891;DHT22;9071;48.220;14.480;2023-08-06T17:28:04;15.90;99.90
17891;DHT22;9071;48.220;14.480;2023-08-06T17:33:08;15.20;99.90
17891;DHT22;9071;48.220;14.480;2023-08-06T17:38:10;14.80;99.90
17891;DHT22;9071;48.220;14.480;2023-08-06T17:43:12;14.60;99.90
17891;DHT22;9071;48.220;14.480;2023-08-06T17:48:16;14.50;99.90
17891;DHT22;9071;48.220;14.480;2023-08-06T17:53:18;14.50;99.90
17891;DHT22;9071;48.220;14.480;2023-08-06T17:58:20;14.60;99.90
17891;DHT22;9071;48.220;14.480;2023-08-06T18:03:23;14.60;99.90
17891;DHT22;9071;48.220;14.480;2023-08-06T18:08:26;14.60;99.90
17891;DHT22;9071;48.220;14.480;2023-08-06T18:13:28;14.60;99.90
17891;DHT22;9071;48.220;14.480;2023-08-06T18:18:31;14.70;99.90
17891;DHT22;9071;48.220;14.480;2023-08-06T18:23:33;14.80;99.90
17891;DHT22;9071;48.220;14.480;2023-08-06T18:28:35;14.80;99.90
17891;DHT22;9071;48.220;14.480;2023-08-06T18:33:43;14.80;99.90
17891;DHT22;9071;48.220;14.480;2023-08-06T18:38:45;14.80;99.90
17891;DHT22;9071;48.220;14.480;2023-08-06T18:43:50;14.80;99.90
17891;DHT22;9071;48.220;14.480;2023-08-06T18:48:53;14.80;99.90
17891;DHT22;9071;48.220;14.480;2023-08-06T18:53:55;14.80;99.90
17891;DHT22;9071;48.220;14.480;2023-08-06T18:58:57;14.80;99.90
17891;DHT22;9071;48.220;14.480;2023-08-06T19:04:01;14.80;99.90
17891;DHT22;9071;48.220;14.480;2023-08-06T19:09:03;14.80;99.90
17891;DHT22;9071;48.220;14.480;2023-08-06T19:14:05;14.80;99.90
17891;DHT22;9071;48.220;14.480;2023-08-06T19:19:08;14.80;99.90
17891;DHT22;9071;48.220;14.480;2023-08-06T19:24:10;14.90;99.90
17891;DHT22;9071;48.220;14.480;2023-08-06T19:29:12;15.00;99.90
17891;DHT22;9071;48.220;14.480;2023-08-06T19:34:16;14.90;99.90
17891;DHT22;9071;48.220;14.480;2023-08-06T19:39:18;14.80;99.90
17891;DHT22;9071;48.220;14.480;2023-08-06T19:44:20;14.70;99.90
17891;DHT22;9071;48.220;14.480;2023-08-06T19:49:24;14.80;99.90
17891;DHT22;9071;48.220;14.480;2023-08-06T19:54:26;14.70;99.90
17891;DHT22;9071;48.220;14.480;2023-08-06T19:59:28;14.70;99.90
17891;DHT22;9071;48.220;14.480;2023-08-06T20:04:32;14.60;99.90
17891;DHT22;9071;48.220;14.480;2023-08-06T20:09:34;14.60;99.90
17891;DHT22;9071;48.220;14.480;2023-08-06T20:14:36;14.50;99.90
17891;DHT22;9071;48.220;14.480;2023-08-06T20:19:40;14.50;99.90
17891;DHT22;9071;48.220;14.480;2023-08-06T20:24:42;14.50;99.90
17891;DHT22;9071;48.220;14.480;2023-08-06T20:29:44;14.60;99.90
17891;DHT22;9071;48.220;14.480;2023-08-06T20:34:47;14.80;99.90
17891;DHT22;9071;48.220;14.480;2023-08-06T20:39:50;14.80;99.90
17891;DHT22;9071;48.220;14.480;2023-08-06T20:44:52;14.80;99.90
17891;DHT22;9071;48.220;14.480;2023-08-06T20:49:55;14.80;99.90
17891;DHT22;9071;48.220;14.480;2023-08-06T20:54:57;14.80;99.90
17891;DHT22;9071;48.220;14.480;2023-08-06T21:00:00;14.70;99.90
17891;DHT22;9071;48.220;14.480;2023-08-06T21:05:03;14.60;99.90
17891;DHT22;9071;48.220;14.480;2023-08-06T21:10:06;14.60;99.90
17891;DHT22;9071;48.220;14.480;2023-08-06T21:15:09;14.50;99.90
17891;DHT22;9071;48.220;14.480;2023-08-06T21:20:14;14.50;99.90
17891;DHT22;9071;48.220;14.480;2023-08-06T21:25:16;14.40;99.90
17891;DHT22;9071;48.220;14.480;2023-08-06T21:30:18;14.30;99.90
17891;DHT22;9071;48.220;14.480;2023-08-06T21:35:21;14.40;99.90
17891;DHT22;9071;48.220;14.480;2023-08-06T21:40:23;14.30;99.90
17891;DHT22;9071;48.220;14.480;2023-08-06T21:45:26;14.20;99.90
17891;DHT22;9071;48.220;14.480;2023-08-06T21:50:29;14.20;99.90
17891;DHT22;9071;48.220;14.480;2023-08-06T21:55:31;14.20;99.90
17891;DHT22;9071;48.220;14.480;2023-08-06T22:00:34;14.30;99.90
17891;DHT22;9071;48.220;14.480;2023-08-06T22:05:38;14.30;99.90
17891;DHT22;9071;48.220;14.480;2023-08-06T22:10:40;14.40;99.90
17891;DHT22;9071;48.220;14.480;2023-08-06T22:15:42;14.40;99.90
17891;DHT22;9071;48.220;14.480;2023-08-06T22:20:46;14.50;99.90
17891;DHT22;9071;48.220;14.480;2023-08-06T22:25:48;14.60;99.90
17891;DHT22;9071;48.220;14.480;2023-08-06T22:30:52;14.70;99.90
17891;DHT22;9071;48.220;14.480;2023-08-06T22:35:56;14.70;99.90
17891;DHT22;9071;48.220;14.480;2023-08-06T22:40:58;14.70;99.90
17891;DHT22;9071;48.220;14.480;2023-08-06T22:46:00;14.70;99.90
17891;DHT22;9071;48.220;14.480;2023-08-06T22:51:03;14.70;99.90
17891;DHT22;9071;48.220;14.480;2023-08-06T22:56:05;14.70;99.90
17891;DHT22;9071;48.220;14.480;2023-08-06T23:01:07;14.60;99.90
17891;DHT22;9071;48.220;14.480;2023-08-06T23:06:11;14.60;99.90
17891;DHT22;9071;48.220;14.480;2023-08-06T23:11:13;14.60;99.90
17891;DHT22;9071;48.220;14.480;2023-08-06T23:16:15;14.50;99.90
17891;DHT22;9071;48.220;14.480;2023-08-06T23:21:18;14.60;99.90
17891;DHT22;9071;48.220;14.480;2023-08-06T23:26:20;14.50;99.90
17891;DHT22;9071;48.220;14.480;2023-08-06T23:31:22;14.50;99.90
17891;DHT22;9071;48.220;14.480;2023-08-06T23:36:26;14.50;99.90
17891;DHT22;9071;48.220;14.480;2023-08-06T23:41:28;14.50;99.90
17891;DHT22;9071;48.220;14.480;2023-08-06T23:46:30;14.50;99.90
17891;DHT22;9071;48.220;14.480;2023-08-06T23:51:35;14.40;99.90
17891;DHT22;9071;48.220;14.480;2023-08-06T23:56:37;14.40;99.90
